sensor_id;sensor_type;location;lat;lon;timestamp;temperature;humidity
6118;DHT22;3089;48.202;11.510;2023-04-03T00:01:14;5.10;99.90
6118;DHT22;3089;48.202;11.510;2023-04-03T00:03:43;5.00;99.90
6118;DHT22;3089;48.202;11.510;2023-04-03T00:06:11;5.20;99.90
6118;DHT22;3089;48.202;11.510;2023-04-03T00:08:40;5.40;99.90
6118;DHT22;3089;48.202;11.510;2023-04-03T00:11:08;5.50;99.90
6118;DHT22;3089;48.202;11.510;2023-04-03T00:13:37;5.30;99.90
6118;DHT22;3089;48.202;11.510;2023-04-03T00:16:09;5.40;99.90
6118;DHT22;3089;48.202;11.510;2023-04-03T00:18:38;5.40;99.90
6118;DHT22;3089;48.202;11.510;2023-04-03T00:21:07;5.40;99.90
6118;DHT22;3089;48.202;11.510;2023-04-03T00:23:35;5.40;99.90
6118;DHT22;3089;48.202;11.510;2023-04-03T00:26:03;5.40;99.90
6118;DHT22;3089;48.202;11.510;2023-04-03T00:28:31;5.50;99.90
6118;DHT22;3089;48.202;11.510;2023-04-03T00:30:59;5.50;99.90
6118;DHT22;3089;48.202;11.510;2023-04-03T00:33:28;5.50;99.90
6118;DHT22;3089;48.202;11.510;2023-04-03T00:35:56;5.50;99.90
6118;DHT22;3089;48.202;11.510;2023-04-03T00:38:24;5.50;99.90
6118;DHT22;3089;48.202;11.510;2023-04-03T00:40:52;5.50;99.90
6118;DHT22;3089;48.202;11.510;2023-04-03T00:43:22;5.40;99.90
6118;DHT22;3089;48.202;11.510;2023-04-03T00:45:51;5.50;99.90
6118;DHT22;3089;48.202;11.510;2023-04-03T00:48:21;5.50;99.90
6118;DHT22;3089;48.202;11.510;2023-04-03T00:50:52;5.00;99.90
6118;DHT22;3089;48.202;11.510;2023-04-03T00:53:24;5.30;99.90
6118;DHT22;3089;48.202;11.510;2023-04-03T00:55:54;4.60;99.90
6118;DHT22;3089;48.202;11.510;2023-04-03T00:58:28;5.10;99.90
6118;DHT22;3089;48.202;11.510;2023-04-03T01:00:59;4.90;99.90
6118;DHT22;3089;48.202;11.510;2023-04-03T01:03:28;4.80;99.90
6118;DHT22;3089;48.202;11.510;2023-04-03T01:05:59;5.10;99.90
6118;DHT22;3089;48.202;11.510;2023-04-03T01:08:27;5.10;99.90
6118;DHT22;3089;48.202;11.510;2023-04-03T01:10:55;5.10;99.90
6118;DHT22;3089;48.202;11.510;2023-04-03T01:13:25;5.20;99.90
6118;DHT22;3089;48.202;11.510;2023-04-03T01:15:53;5.20;99.90
6118;DHT22;3089;48.202;11.510;2023-04-03T01:18:24;5.30;99.90
6118;DHT22;3089;48.202;11.510;2023-04-03T01:21:28;5.20;99.90
6118;DHT22;3089;48.202;11.510;2023-04-03T01:24:09;5.20;99.90
6118;DHT22;3089;48.202;11.510;2023-04-03T01:26:39;4.80;99.90
6118;DHT22;3089;48.202;11.510;2023-04-03T01:29:07;5.00;99.90
6118;DHT22;3089;48.202;11.510;2023-04-03T01:31:49;4.90;99.90
6118;DHT22;3089;48.202;11.510;2023-04-03T01:34:18;4.80;99.90
6118;DHT22;3089;48.202;11.510;2023-04-03T01:36:46;5.10;99.90
6118;DHT22;3089;48.202;11.510;2023-04-03T01:39:14;5.00;99.90
6118;DHT22;3089;48.202;11.510;2023-04-03T01:41:42;5.10;99.90
6118;DHT22;3089;48.202;11.510;2023-04-03T01:44:10;5.10;99.90
6118;DHT22;3089;48.202;11.510;2023-04-03T01:46:38;5.10;99.90
6118;DHT22;3089;48.202;11.510;2023-04-03T01:49:07;5.10;99.90
6118;DHT22;3089;48.202;11.510;2023-04-03T01:51:35;4.90;99.90
6118;DHT22;3089;48.202;11.510;2023-04-03T01:54:03;5.00;99.90
6118;DHT22;3089;48.202;11.510;2023-04-03T01:56:31;5.10;99.90
6118;DHT22;3089;48.202;11.510;2023-04-03T01:58:59;5.10;99.90
6118;DHT22;3089;48.202;11.510;2023-04-03T02:01:26;5.10;99.90
6118;DHT22;3089;48.202;11.510;2023-04-03T02:03:54;5.00;99.90
6118;DHT22;3089;48.202;11.510;2023-04-03T02:06:23;5.10;99.90
6118;DHT22;3089;48.202;11.510;2023-04-03T02:08:51;5.00;99.90
6118;DHT22;3089;48.202;11.510;2023-04-03T02:11:19;4.60;99.90
6118;DHT22;3089;48.202;11.510;2023-04-03T02:13:47;4.80;99.90
6118;DHT22;3089;48.202;11.510;2023-04-03T02:16:15;4.90;99.90
6118;DHT22;3089;48.202;11.510;2023-04-03T02:18:43;4.60;99.90
6118;DHT22;3089;48.202;11.510;2023-04-03T02:21:11;4.80;99.90
6118;DHT22;3089;48.202;11.510;2023-04-03T02:23:40;4.70;99.90
6118;DHT22;3089;48.202;11.510;2023-04-03T02:26:10;4.80;99.90
6118;DHT22;3089;48.202;11.510;2023-04-03T02:28:39;4.90;99.90
6118;DHT22;3089;48.202;11.510;2023-04-03T02:31:09;4.70;99.90
6118;DHT22;3089;48.202;11.510;2023-04-03T02:33:38;4.90;99.90
6118;DHT22;3089;48.202;11.510;2023-04-03T02:36:07;4.90;99.90
6118;DHT22;3089;48.202;11.510;2023-04-03T02:38:35;4.70;99.90
6118;DHT22;3089;48.202;11.510;2023-04-03T02:41:06;4.50;99.90
6118;DHT22;3089;48.202;11.510;2023-04-03T02:43:34;4.70;99.90
6118;DHT22;3089;48.202;11.510;2023-04-03T02:46:03;4.80;99.90
6118;DHT22;3089;48.202;11.510;2023-04-03T02:48:31;4.90;99.90
6118;DHT22;3089;48.202;11.510;2023-04-03T02:50:59;4.80;99.90
6118;DHT22;3089;48.202;11.510;2023-04-03T02:53:27;4.70;99.90
6118;DHT22;3089;48.202;11.510;2023-04-03T02:55:57;4.80;99.90
6118;DHT22;3089;48.202;11.510;2023-04-03T02:58:26;4.60;99.90
6118;DHT22;3089;48.202;11.510;2023-04-03T03:00:54;4.50;99.90
6118;DHT22;3089;48.202;11.510;2023-04-03T03:03:22;4.70;99.90
6118;DHT22;3089;48.202;11.510;2023-04-03T03:05:50;4.40;99.90
6118;DHT22;3089;48.202;11.510;2023-04-03T03:08:27;4.60;99.90
6118;DHT22;3089;48.202;11.510;2023-04-03T03:10:55;4.70;99.90
6118;DHT22;3089;48.202;11.510;2023-04-03T03:13:23;4.60;99.90
6118;DHT22;3089;48.202;11.510;2023-04-03T03:15:52;4.70;99.90
6118;DHT22;3089;48.202;11.510;2023-04-03T03:18:20;4.70;99.90
6118;DHT22;3089;48.202;11.510;2023-04-03T03:20:51;4.40;99.90
6118;DHT22;3089;48.202;11.510;2023-04-03T03:23:18;4.50;99.90
6118;DHT22;3089;48.202;11.510;2023-04-03T03:25:46;4.30;99.90
6118;DHT22;3089;48.202;11.510;2023-04-03T03:28:14;4.40;99.90
6118;DHT22;3089;48.202;11.510;2023-04-03T03:30:42;4.60;99.90
6118;DHT22;3089;48.202;11.510;2023-04-03T03:33:11;4.50;99.90
6118;DHT22;3089;48.202;11.510;2023-04-03T03:35:39;4.60;99.90
6118;DHT22;3089;48.202;11.510;2023-04-03T03:38:08;4.50;99.90
6118;DHT22;3089;48.202;11.510;2023-04-03T03:40:36;4.50;99.90
6118;DHT22;3089;48.202;11.510;2023-04-03T03:43:03;4.20;99.90
6118;DHT22;3089;48.202;11.510;2023-04-03T03:45:34;4.50;99.90
6118;DHT22;3089;48.202;11.510;2023-04-03T03:48:03;4.60;99.90
6118;DHT22;3089;48.202;11.510;2023-04-03T03:50:32;4.40;99.90
6118;DHT22;3089;48.202;11.510;2023-04-03T03:53:00;4.70;99.90
6118;DHT22;3089;48.202;11.510;2023-04-03T03:55:28;4.60;99.90
6118;DHT22;3089;48.202;11.510;2023-04-03T03:57:56;4.60;99.90
6118;DHT22;3089;48.202;11.510;2023-04-03T04:00:24;4.70;99.90
6118;DHT22;3089;48.202;11.510;2023-04-03T04:02:52;4.70;99.90
6118;DHT22;3089;48.202;11.510;2023-04-03T04:05:23;4.50;99.90
6118;DHT22;3089;48.202;11.510;2023-04-03T04:07:52;4.50;99.90
6118;DHT22;3089;48.202;11.510;2023-04-03T04:10:20;4.60;99.90
6118;DHT22;3089;48.202;11.510;2023-04-03T04:12:48;4.50;99.90
6118;DHT22;3089;48.202;11.510;2023-04-03T04:15:17;4.50;99.90
6118;DHT22;3089;48.202;11.510;2023-04-03T04:17:45;4.50;99.90
6118;DHT22;3089;48.202;11.510;2023-04-03T04:20:13;4.60;99.90
6118;DHT22;3089;48.202;11.510;2023-04-03T04:22:41;4.60;99.90
6118;DHT22;3089;48.202;11.510;2023-04-03T04:25:10;4.60;99.90
6118;DHT22;3089;48.202;11.510;2023-04-03T04:27:38;4.50;99.90
6118;DHT22;3089;48.202;11.510;2023-04-03T04:30:07;4.40;99.90
6118;DHT22;3089;48.202;11.510;2023-04-03T04:32:36;4.30;99.90
6118;DHT22;3089;48.202;11.510;2023-04-03T04:35:04;4.40;99.90
6118;DHT22;3089;48.202;11.510;2023-04-03T04:37:33;4.40;99.90
6118;DHT22;3089;48.202;11.510;2023-04-03T04:40:01;4.50;99.90
6118;DHT22;3089;48.202;11.510;2023-04-03T04:42:31;4.40;99.90
6118;DHT22;3089;48.202;11.510;2023-04-03T04:45:00;4.10;99.90
6118;DHT22;3089;48.202;11.510;2023-04-03T04:47:28;4.20;99.90
6118;DHT22;3089;48.202;11.510;2023-04-03T04:49:56;4.30;99.90
6118;DHT22;3089;48.202;11.510;2023-04-03T04:52:23;4.30;99.90
6118;DHT22;3089;48.202;11.510;2023-04-03T04:54:51;4.20;99.90
6118;DHT22;3089;48.202;11.510;2023-04-03T04:57:19;4.40;99.90
6118;DHT22;3089;48.202;11.510;2023-04-03T04:59:48;4.30;99.90
6118;DHT22;3089;48.202;11.510;2023-04-03T05:02:16;4.20;99.90
6118;DHT22;3089;48.202;11.510;2023-04-03T05:04:44;4.00;99.90
6118;DHT22;3089;48.202;11.510;2023-04-03T05:07:12;4.10;99.90
6118;DHT22;3089;48.202;11.510;2023-04-03T05:09:40;3.80;99.90
6118;DHT22;3089;48.202;11.510;2023-04-03T05:12:09;3.90;99.90
6118;DHT22;3089;48.202;11.510;2023-04-03T05:14:36;4.30;99.90
6118;DHT22;3089;48.202;11.510;2023-04-03T05:17:06;4.10;99.90
6118;DHT22;3089;48.202;11.510;2023-04-03T05:19:34;3.90;99.90
6118;DHT22;3089;48.202;11.510;2023-04-03T05:22:02;4.20;99.90
6118;DHT22;3089;48.202;11.510;2023-04-03T05:24:30;4.10;99.90
6118;DHT22;3089;48.202;11.510;2023-04-03T05:26:58;3.60;99.90
6118;DHT22;3089;48.202;11.510;2023-04-03T05:29:26;3.80;99.90
6118;DHT22;3089;48.202;11.510;2023-04-03T05:31:53;4.00;99.90
6118;DHT22;3089;48.202;11.510;2023-04-03T05:34:23;4.00;99.90
6118;DHT22;3089;48.202;11.510;2023-04-03T05:36:51;3.70;99.90
6118;DHT22;3089;48.202;11.510;2023-04-03T05:39:19;3.70;99.90
6118;DHT22;3089;48.202;11.510;2023-04-03T05:41:47;4.10;99.90
6118;DHT22;3089;48.202;11.510;2023-04-03T05:44:15;4.10;99.90
6118;DHT22;3089;48.202;11.510;2023-04-03T05:46:43;4.00;99.90
6118;DHT22;3089;48.202;11.510;2023-04-03T05:49:10;4.10;99.90
6118;DHT22;3089;48.202;11.510;2023-04-03T05:51:40;4.30;99.90
6118;DHT22;3089;48.202;11.510;2023-04-03T05:54:12;4.30;99.90
6118;DHT22;3089;48.202;11.510;2023-04-03T05:56:41;4.00;99.90
6118;DHT22;3089;48.202;11.510;2023-04-03T05:59:09;3.90;99.90
6118;DHT22;3089;48.202;11.510;2023-04-03T06:01:37;3.60;99.90
6118;DHT22;3089;48.202;11.510;2023-04-03T06:04:05;3.90;99.90
6118;DHT22;3089;48.202;11.510;2023-04-03T06:06:48;3.90;99.90
6118;DHT22;3089;48.202;11.510;2023-04-03T06:09:19;4.00;99.90
6118;DHT22;3089;48.202;11.510;2023-04-03T06:11:47;4.10;99.90
6118;DHT22;3089;48.202;11.510;2023-04-03T06:14:15;4.20;99.90
6118;DHT22;3089;48.202;11.510;2023-04-03T06:16:43;4.20;99.90
6118;DHT22;3089;48.202;11.510;2023-04-03T06:19:11;4.20;99.90
6118;DHT22;3089;48.202;11.510;2023-04-03T06:21:39;4.30;99.90
6118;DHT22;3089;48.202;11.510;2023-04-03T06:24:10;4.30;99.90
6118;DHT22;3089;48.202;11.510;2023-04-03T06:26:39;4.10;99.90
6118;DHT22;3089;48.202;11.510;2023-04-03T06:29:08;4.10;99.90
6118;DHT22;3089;48.202;11.510;2023-04-03T06:31:36;4.10;99.90
6118;DHT22;3089;48.202;11.510;2023-04-03T06:34:04;4.30;99.90
6118;DHT22;3089;48.202;11.510;2023-04-03T06:36:35;4.20;99.90
6118;DHT22;3089;48.202;11.510;2023-04-03T06:39:03;4.30;99.90
6118;DHT22;3089;48.202;11.510;2023-04-03T06:41:33;4.20;99.90
6118;DHT22;3089;48.202;11.510;2023-04-03T06:44:02;4.30;99.90
6118;DHT22;3089;48.202;11.510;2023-04-03T06:46:30;4.40;99.90
6118;DHT22;3089;48.202;11.510;2023-04-03T06:48:58;4.00;99.90
6118;DHT22;3089;48.202;11.510;2023-04-03T06:51:27;4.20;99.90
6118;DHT22;3089;48.202;11.510;2023-04-03T06:53:57;4.30;99.90
6118;DHT22;3089;48.202;11.510;2023-04-03T06:56:25;4.10;99.90
6118;DHT22;3089;48.202;11.510;2023-04-03T06:58:56;4.10;99.90
6118;DHT22;3089;48.202;11.510;2023-04-03T07:01:25;4.40;99.90
6118;DHT22;3089;48.202;11.510;2023-04-03T07:03:54;4.50;99.90
6118;DHT22;3089;48.202;11.510;2023-04-03T07:06:23;4.50;99.90
6118;DHT22;3089;48.202;11.510;2023-04-03T07:08:53;3.90;99.90
6118;DHT22;3089;48.202;11.510;2023-04-03T07:11:21;3.90;99.90
6118;DHT22;3089;48.202;11.510;2023-04-03T07:13:50;4.30;99.90
6118;DHT22;3089;48.202;11.510;2023-04-03T07:16:20;4.10;99.90
6118;DHT22;3089;48.202;11.510;2023-04-03T07:18:48;4.50;99.90
6118;DHT22;3089;48.202;11.510;2023-04-03T07:21:15;4.20;99.90
6118;DHT22;3089;48.202;11.510;2023-04-03T07:23:43;3.70;99.90
6118;DHT22;3089;48.202;11.510;2023-04-03T07:26:11;4.00;99.90
6118;DHT22;3089;48.202;11.510;2023-04-03T07:28:39;3.80;99.90
6118;DHT22;3089;48.202;11.510;2023-04-03T07:31:11;4.00;99.90
6118;DHT22;3089;48.202;11.510;2023-04-03T07:33:42;4.10;99.90
6118;DHT22;3089;48.202;11.510;2023-04-03T07:36:10;4.10;99.90
6118;DHT22;3089;48.202;11.510;2023-04-03T07:38:41;4.20;99.90
6118;DHT22;3089;48.202;11.510;2023-04-03T07:41:12;4.30;99.90
6118;DHT22;3089;48.202;11.510;2023-04-03T07:43:41;4.20;99.90
6118;DHT22;3089;48.202;11.510;2023-04-03T07:46:09;4.00;99.90
6118;DHT22;3089;48.202;11.510;2023-04-03T07:48:37;4.60;99.90
6118;DHT22;3089;48.202;11.510;2023-04-03T07:51:06;4.10;99.90
6118;DHT22;3089;48.202;11.510;2023-04-03T07:53:34;4.00;99.90
6118;DHT22;3089;48.202;11.510;2023-04-03T07:56:05;4.10;99.90
6118;DHT22;3089;48.202;11.510;2023-04-03T07:58:33;4.30;99.90
6118;DHT22;3089;48.202;11.510;2023-04-03T08:01:01;4.70;99.90
6118;DHT22;3089;48.202;11.510;2023-04-03T08:03:29;4.70;99.90
6118;DHT22;3089;48.202;11.510;2023-04-03T08:06:02;4.50;99.90
6118;DHT22;3089;48.202;11.510;2023-04-03T08:08:34;4.40;99.90
6118;DHT22;3089;48.202;11.510;2023-04-03T08:11:02;4.20;99.90
6118;DHT22;3089;48.202;11.510;2023-04-03T08:13:32;4.30;99.90
6118;DHT22;3089;48.202;11.510;2023-04-03T08:16:07;4.30;99.90
6118;DHT22;3089;48.202;11.510;2023-04-03T08:18:35;4.20;99.90
6118;DHT22;3089;48.202;11.510;2023-04-03T08:21:06;4.30;99.90
6118;DHT22;3089;48.202;11.510;2023-04-03T08:23:35;4.50;99.90
6118;DHT22;3089;48.202;11.510;2023-04-03T08:26:08;4.30;99.90
6118;DHT22;3089;48.202;11.510;2023-04-03T08:28:37;4.40;99.90
6118;DHT22;3089;48.202;11.510;2023-04-03T08:31:06;4.50;99.90
6118;DHT22;3089;48.202;11.510;2023-04-03T08:33:38;4.40;99.90
6118;DHT22;3089;48.202;11.510;2023-04-03T08:36:08;4.40;99.90
6118;DHT22;3089;48.202;11.510;2023-04-03T08:38:44;4.00;99.90
6118;DHT22;3089;48.202;11.510;2023-04-03T08:41:15;4.20;99.90
6118;DHT22;3089;48.202;11.510;2023-04-03T08:43:56;4.30;99.90
6118;DHT22;3089;48.202;11.510;2023-04-03T08:46:35;4.10;99.90
6118;DHT22;3089;48.202;11.510;2023-04-03T08:49:11;4.30;99.90
6118;DHT22;3089;48.202;11.510;2023-04-03T08:51:47;4.10;99.90
6118;DHT22;3089;48.202;11.510;2023-04-03T08:54:24;3.80;99.90
6118;DHT22;3089;48.202;11.510;2023-04-03T08:56:55;3.80;99.90
6118;DHT22;3089;48.202;11.510;2023-04-03T08:59:28;4.30;99.90
6118;DHT22;3089;48.202;11.510;2023-04-03T09:01:58;4.50;99.90
6118;DHT22;3089;48.202;11.510;2023-04-03T09:04:31;4.60;99.90
6118;DHT22;3089;48.202;11.510;2023-04-03T09:07:06;4.40;99.90
6118;DHT22;3089;48.202;11.510;2023-04-03T09:09:40;4.30;99.90
6118;DHT22;3089;48.202;11.510;2023-04-03T09:12:16;4.30;99.90
6118;DHT22;3089;48.202;11.510;2023-04-03T09:14:51;4.50;99.90
6118;DHT22;3089;48.202;11.510;2023-04-03T09:17:31;4.10;99.90
6118;DHT22;3089;48.202;11.510;2023-04-03T09:20:15;4.50;99.90
6118;DHT22;3089;48.202;11.510;2023-04-03T09:22:47;4.20;99.90
6118;DHT22;3089;48.202;11.510;2023-04-03T09:25:21;4.20;99.90
6118;DHT22;3089;48.202;11.510;2023-04-03T09:27:49;4.60;99.90
6118;DHT22;3089;48.202;11.510;2023-04-03T09:30:20;4.40;99.90
6118;DHT22;3089;48.202;11.510;2023-04-03T09:32:51;4.40;99.90
6118;DHT22;3089;48.202;11.510;2023-04-03T09:35:21;4.50;99.90
6118;DHT22;3089;48.202;11.510;2023-04-03T09:38:19;4.60;99.90
6118;DHT22;3089;48.202;11.510;2023-04-03T09:40:49;4.70;99.90
6118;DHT22;3089;48.202;11.510;2023-04-03T09:43:27;4.60;99.90
6118;DHT22;3089;48.202;11.510;2023-04-03T09:46:15;4.70;99.90
6118;DHT22;3089;48.202;11.510;2023-04-03T09:48:56;5.00;99.90
6118;DHT22;3089;48.202;11.510;2023-04-03T09:51:34;4.80;99.90
6118;DHT22;3089;48.202;11.510;2023-04-03T09:54:29;4.50;99.90
6118;DHT22;3089;48.202;11.510;2023-04-03T09:57:03;4.70;99.90
6118;DHT22;3089;48.202;11.510;2023-04-03T09:59:32;5.00;99.90
6118;DHT22;3089;48.202;11.510;2023-04-03T10:02:02;4.30;99.90
6118;DHT22;3089;48.202;11.510;2023-04-03T10:04:41;4.50;99.90
6118;DHT22;3089;48.202;11.510;2023-04-03T10:07:28;4.50;99.90
6118;DHT22;3089;48.202;11.510;2023-04-03T10:09:57;4.00;99.90
6118;DHT22;3089;48.202;11.510;2023-04-03T10:12:27;4.00;99.90
6118;DHT22;3089;48.202;11.510;2023-04-03T10:14:57;4.00;99.90
6118;DHT22;3089;48.202;11.510;2023-04-03T10:17:33;4.60;99.90
6118;DHT22;3089;48.202;11.510;2023-04-03T10:20:15;4.60;99.90
6118;DHT22;3089;48.202;11.510;2023-04-03T10:23:00;4.30;99.90
6118;DHT22;3089;48.202;11.510;2023-04-03T10:25:34;4.30;99.90
6118;DHT22;3089;48.202;11.510;2023-04-03T10:28:12;4.40;99.90
6118;DHT22;3089;48.202;11.510;2023-04-03T10:30:49;4.30;99.90
6118;DHT22;3089;48.202;11.510;2023-04-03T10:33:30;4.40;99.90
6118;DHT22;3089;48.202;11.510;2023-04-03T10:36:15;5.10;99.90
6118;DHT22;3089;48.202;11.510;2023-04-03T10:38:54;5.00;99.90
6118;DHT22;3089;48.202;11.510;2023-04-03T10:41:32;5.20;99.90
6118;DHT22;3089;48.202;11.510;2023-04-03T10:44:12;4.90;99.90
6118;DHT22;3089;48.202;11.510;2023-04-03T10:46:46;4.70;99.90
6118;DHT22;3089;48.202;11.510;2023-04-03T10:49:31;4.30;99.90
6118;DHT22;3089;48.202;11.510;2023-04-03T10:52:08;4.40;99.90
6118;DHT22;3089;48.202;11.510;2023-04-03T10:54:46;4.20;99.90
6118;DHT22;3089;48.202;11.510;2023-04-03T10:57:17;4.20;99.90
6118;DHT22;3089;48.202;11.510;2023-04-03T10:59:49;4.20;99.90
6118;DHT22;3089;48.202;11.510;2023-04-03T11:02:23;4.10;99.90
6118;DHT22;3089;48.202;11.510;2023-04-03T11:05:00;3.80;99.90
6118;DHT22;3089;48.202;11.510;2023-04-03T11:07:33;4.20;99.90
6118;DHT22;3089;48.202;11.510;2023-04-03T11:10:10;4.30;99.90
6118;DHT22;3089;48.202;11.510;2023-04-03T11:12:43;4.20;99.90
6118;DHT22;3089;48.202;11.510;2023-04-03T11:15:16;4.10;99.90
6118;DHT22;3089;48.202;11.510;2023-04-03T11:17:48;3.90;99.90
6118;DHT22;3089;48.202;11.510;2023-04-03T11:20:19;4.00;99.90
6118;DHT22;3089;48.202;11.510;2023-04-03T11:22:58;4.00;99.90
6118;DHT22;3089;48.202;11.510;2023-04-03T11:25:29;4.30;99.90
6118;DHT22;3089;48.202;11.510;2023-04-03T11:28:00;4.20;99.90
6118;DHT22;3089;48.202;11.510;2023-04-03T11:30:37;4.30;99.90
6118;DHT22;3089;48.202;11.510;2023-04-03T11:33:30;4.30;99.90
6118;DHT22;3089;48.202;11.510;2023-04-03T11:36:04;4.10;99.90
6118;DHT22;3089;48.202;11.510;2023-04-03T11:38:54;4.10;99.90
6118;DHT22;3089;48.202;11.510;2023-04-03T11:41:26;4.40;99.90
6118;DHT22;3089;48.202;11.510;2023-04-03T11:43:57;4.60;99.90
6118;DHT22;3089;48.202;11.510;2023-04-03T11:46:52;4.70;99.90
6118;DHT22;3089;48.202;11.510;2023-04-03T11:49:55;4.50;99.90
6118;DHT22;3089;48.202;11.510;2023-04-03T11:52:59;4.80;99.90
6118;DHT22;3089;48.202;11.510;2023-04-03T11:55:43;5.20;99.90
6118;DHT22;3089;48.202;11.510;2023-04-03T11:58:14;5.10;99.90
6118;DHT22;3089;48.202;11.510;2023-04-03T12:00:57;5.00;99.90
6118;DHT22;3089;48.202;11.510;2023-04-03T12:10:00;5.00;99.90
6118;DHT22;3089;48.202;11.510;2023-04-03T12:12:37;5.40;99.90
6118;DHT22;3089;48.202;11.510;2023-04-03T12:15:23;5.30;99.90
6118;DHT22;3089;48.202;11.510;2023-04-03T12:17:51;5.60;99.90
6118;DHT22;3089;48.202;11.510;2023-04-03T12:20:58;5.80;99.90
6118;DHT22;3089;48.202;11.510;2023-04-03T12:23:29;5.80;99.90
6118;DHT22;3089;48.202;11.510;2023-04-03T12:26:20;6.10;99.90
6118;DHT22;3089;48.202;11.510;2023-04-03T12:28:51;5.30;99.90
6118;DHT22;3089;48.202;11.510;2023-04-03T12:31:23;5.80;99.90
6118;DHT22;3089;48.202;11.510;2023-04-03T12:34:09;5.60;99.90
6118;DHT22;3089;48.202;11.510;2023-04-03T12:36:49;5.90;99.90
6118;DHT22;3089;48.202;11.510;2023-04-03T12:39:41;6.10;99.90
6118;DHT22;3089;48.202;11.510;2023-04-03T12:42:22;5.60;99.90
6118;DHT22;3089;48.202;11.510;2023-04-03T12:44:57;5.60;99.90
6118;DHT22;3089;48.202;11.510;2023-04-03T12:47:28;6.00;99.90
6118;DHT22;3089;48.202;11.510;2023-04-03T12:49:59;6.00;99.90
6118;DHT22;3089;48.202;11.510;2023-04-03T12:52:35;6.00;99.90
6118;DHT22;3089;48.202;11.510;2023-04-03T12:55:13;6.00;99.90
6118;DHT22;3089;48.202;11.510;2023-04-03T12:57:41;6.00;99.90
6118;DHT22;3089;48.202;11.510;2023-04-03T13:00:31;6.00;99.90
6118;DHT22;3089;48.202;11.510;2023-04-03T13:03:01;5.80;99.90
6118;DHT22;3089;48.202;11.510;2023-04-03T13:05:31;5.90;99.90
6118;DHT22;3089;48.202;11.510;2023-04-03T13:08:08;5.60;99.90
6118;DHT22;3089;48.202;11.510;2023-04-03T13:10:54;5.40;99.90
6118;DHT22;3089;48.202;11.510;2023-04-03T13:13:23;5.40;99.90
6118;DHT22;3089;48.202;11.510;2023-04-03T13:15:53;5.20;99.90
6118;DHT22;3089;48.202;11.510;2023-04-03T13:18:27;5.10;99.90
6118;DHT22;3089;48.202;11.510;2023-04-03T13:21:02;5.60;99.90
6118;DHT22;3089;48.202;11.510;2023-04-03T13:23:32;5.80;99.90
6118;DHT22;3089;48.202;11.510;2023-04-03T13:26:02;5.60;99.90
6118;DHT22;3089;48.202;11.510;2023-04-03T13:28:31;5.40;99.90
6118;DHT22;3089;48.202;11.510;2023-04-03T13:31:04;5.20;99.90
6118;DHT22;3089;48.202;11.510;2023-04-03T13:33:34;5.60;99.90
6118;DHT22;3089;48.202;11.510;2023-04-03T13:36:06;5.60;99.90
6118;DHT22;3089;48.202;11.510;2023-04-03T13:38:38;5.70;99.90
6118;DHT22;3089;48.202;11.510;2023-04-03T13:41:23;5.90;99.90
6118;DHT22;3089;48.202;11.510;2023-04-03T13:43:51;5.90;99.90
6118;DHT22;3089;48.202;11.510;2023-04-03T13:46:32;6.00;99.90
6118;DHT22;3089;48.202;11.510;2023-04-03T13:49:17;6.10;99.90
6118;DHT22;3089;48.202;11.510;2023-04-03T13:51:45;5.90;99.90
6118;DHT22;3089;48.202;11.510;2023-04-03T13:54:32;6.10;99.90
6118;DHT22;3089;48.202;11.510;2023-04-03T13:57:02;6.10;99.90
6118;DHT22;3089;48.202;11.510;2023-04-03T13:59:33;6.00;99.90
6118;DHT22;3089;48.202;11.510;2023-04-03T14:02:17;6.30;99.90
6118;DHT22;3089;48.202;11.510;2023-04-03T14:04:50;6.50;99.90
6118;DHT22;3089;48.202;11.510;2023-04-03T14:07:19;6.80;99.90
6118;DHT22;3089;48.202;11.510;2023-04-03T14:09:51;6.80;99.90
6118;DHT22;3089;48.202;11.510;2023-04-03T14:12:24;6.60;99.90
6118;DHT22;3089;48.202;11.510;2023-04-03T14:14:57;6.50;99.90
6118;DHT22;3089;48.202;11.510;2023-04-03T14:17:26;6.70;99.90
6118;DHT22;3089;48.202;11.510;2023-04-03T14:19:55;7.00;99.90
6118;DHT22;3089;48.202;11.510;2023-04-03T14:22:26;7.00;99.90
6118;DHT22;3089;48.202;11.510;2023-04-03T14:24:58;7.20;99.90
6118;DHT22;3089;48.202;11.510;2023-04-03T14:27:27;7.00;99.90
6118;DHT22;3089;48.202;11.510;2023-04-03T14:29:57;6.80;99.90
6118;DHT22;3089;48.202;11.510;2023-04-03T14:32:26;6.40;99.90
6118;DHT22;3089;48.202;11.510;2023-04-03T14:34:55;6.00;99.90
6118;DHT22;3089;48.202;11.510;2023-04-03T14:37:27;6.20;99.90
6118;DHT22;3089;48.202;11.510;2023-04-03T14:39:58;6.60;99.90
6118;DHT22;3089;48.202;11.510;2023-04-03T14:42:29;7.10;99.90
6118;DHT22;3089;48.202;11.510;2023-04-03T14:44:58;7.20;99.90
6118;DHT22;3089;48.202;11.510;2023-04-03T14:47:28;7.00;99.90
6118;DHT22;3089;48.202;11.510;2023-04-03T14:49:59;6.90;99.90
6118;DHT22;3089;48.202;11.510;2023-04-03T14:52:30;7.10;99.90
6118;DHT22;3089;48.202;11.510;2023-04-03T14:55:00;6.70;99.90
6118;DHT22;3089;48.202;11.510;2023-04-03T14:57:29;6.30;99.90
6118;DHT22;3089;48.202;11.510;2023-04-03T14:59:57;6.30;99.90
6118;DHT22;3089;48.202;11.510;2023-04-03T15:02:29;6.50;99.90
6118;DHT22;3089;48.202;11.510;2023-04-03T15:04:58;6.80;99.90
6118;DHT22;3089;48.202;11.510;2023-04-03T15:07:28;6.50;99.90
6118;DHT22;3089;48.202;11.510;2023-04-03T15:09:57;6.90;99.90
6118;DHT22;3089;48.202;11.510;2023-04-03T15:12:26;6.50;99.90
6118;DHT22;3089;48.202;11.510;2023-04-03T15:14:54;6.40;99.90
6118;DHT22;3089;48.202;11.510;2023-04-03T15:17:29;6.90;99.90
6118;DHT22;3089;48.202;11.510;2023-04-03T15:19:58;6.80;99.90
6118;DHT22;3089;48.202;11.510;2023-04-03T15:22:26;6.60;99.90
6118;DHT22;3089;48.202;11.510;2023-04-03T15:24:54;6.60;99.90
6118;DHT22;3089;48.202;11.510;2023-04-03T15:27:22;6.70;99.90
6118;DHT22;3089;48.202;11.510;2023-04-03T15:29:51;6.50;99.90
6118;DHT22;3089;48.202;11.510;2023-04-03T15:32:19;6.30;99.90
6118;DHT22;3089;48.202;11.510;2023-04-03T15:34:47;6.40;99.90
6118;DHT22;3089;48.202;11.510;2023-04-03T15:37:15;6.20;99.90
6118;DHT22;3089;48.202;11.510;2023-04-03T15:39:42;5.80;99.90
6118;DHT22;3089;48.202;11.510;2023-04-03T15:42:10;6.20;99.90
6118;DHT22;3089;48.202;11.510;2023-04-03T15:44:39;6.00;99.90
6118;DHT22;3089;48.202;11.510;2023-04-03T15:47:08;6.10;99.90
6118;DHT22;3089;48.202;11.510;2023-04-03T15:49:36;6.20;99.90
6118;DHT22;3089;48.202;11.510;2023-04-03T15:52:04;5.80;99.90
6118;DHT22;3089;48.202;11.510;2023-04-03T15:54:34;5.90;99.90
6118;DHT22;3089;48.202;11.510;2023-04-03T15:57:02;6.00;99.90
6118;DHT22;3089;48.202;11.510;2023-04-03T15:59:30;5.80;99.90
6118;DHT22;3089;48.202;11.510;2023-04-03T16:01:59;6.00;99.90
6118;DHT22;3089;48.202;11.510;2023-04-03T16:04:30;6.00;99.90
6118;DHT22;3089;48.202;11.510;2023-04-03T16:07:00;6.00;99.90
6118;DHT22;3089;48.202;11.510;2023-04-03T16:09:28;6.10;99.90
6118;DHT22;3089;48.202;11.510;2023-04-03T16:11:56;5.90;99.90
6118;DHT22;3089;48.202;11.510;2023-04-03T16:14:24;5.40;99.90
6118;DHT22;3089;48.202;11.510;2023-04-03T16:16:52;5.60;99.90
6118;DHT22;3089;48.202;11.510;2023-04-03T16:19:20;5.60;99.90
6118;DHT22;3089;48.202;11.510;2023-04-03T16:21:52;5.50;99.90
6118;DHT22;3089;48.202;11.510;2023-04-03T16:24:20;5.40;99.90
6118;DHT22;3089;48.202;11.510;2023-04-03T16:26:48;5.60;99.90
6118;DHT22;3089;48.202;11.510;2023-04-03T16:29:16;5.50;99.90
6118;DHT22;3089;48.202;11.510;2023-04-03T16:31:44;5.10;99.90
6118;DHT22;3089;48.202;11.510;2023-04-03T16:34:13;4.90;99.90
6118;DHT22;3089;48.202;11.510;2023-04-03T16:36:41;5.30;99.90